sensor_id;sensor_type;location;lat;lon;timestamp;P1;durP1;ratioP1;P2;durP2;ratioP2
7003;SDS011;3542;48.812;9.146;2022-12-10T00:01:36;35.80;;;22.90;;
7003;SDS011;3542;48.812;9.146;2022-12-10T00:04:03;43.03;;;23.33;;
7003;SDS011;3542;48.812;9.146;2022-12-10T00:06:30;41.63;;;22.50;;
7003;SDS011;3542;48.812;9.146;2022-12-10T00:08:58;43.83;;;23.03;;
7003;SDS011;3542;48.812;9.146;2022-12-10T00:11:25;37.90;;;22.30;;
7003;SDS011;3542;48.812;9.146;2022-12-10T00:13:52;33.50;;;19.80;;
7003;SDS011;3542;48.812;9.146;2022-12-10T00:16:18;34.73;;;20.80;;
7003;SDS011;3542;48.812;9.146;2022-12-10T00:18:46;39.00;;;22.03;;
7003;SDS011;3542;48.812;9.146;2022-12-10T00:21:14;34.93;;;21.70;;
7003;SDS011;3542;48.812;9.146;2022-12-10T00:23:42;35.47;;;22.90;;
7003;SDS011;3542;48.812;9.146;2022-12-10T00:26:08;37.67;;;22.13;;
7003;SDS011;3542;48.812;9.146;2022-12-10T00:28:35;38.67;;;22.80;;
7003;SDS011;3542;48.812;9.146;2022-12-10T00:31:05;37.67;;;23.80;;
7003;SDS011;3542;48.812;9.146;2022-12-10T00:33:33;36.47;;;21.47;;
7003;SDS011;3542;48.812;9.146;2022-12-10T00:36:03;38.20;;;22.40;;
7003;SDS011;3542;48.812;9.146;2022-12-10T00:38:31;40.93;;;21.63;;
7003;SDS011;3542;48.812;9.146;2022-12-10T00:40:57;40.93;;;20.60;;
7003;SDS011;3542;48.812;9.146;2022-12-10T00:43:22;37.47;;;22.50;;
7003;SDS011;3542;48.812;9.146;2022-12-10T00:45:48;35.60;;;21.30;;
7003;SDS011;3542;48.812;9.146;2022-12-10T00:48:13;33.70;;;20.97;;
7003;SDS011;3542;48.812;9.146;2022-12-10T00:50:39;36.37;;;20.50;;
7003;SDS011;3542;48.812;9.146;2022-12-10T00:53:04;36.40;;;21.30;;
7003;SDS011;3542;48.812;9.146;2022-12-10T00:55:30;38.80;;;21.60;;
7003;SDS011;3542;48.812;9.146;2022-12-10T00:57:55;35.07;;;21.43;;
7003;SDS011;3542;48.812;9.146;2022-12-10T01:00:21;32.97;;;20.43;;
7003;SDS011;3542;48.812;9.146;2022-12-10T01:02:46;39.07;;;21.70;;
7003;SDS011;3542;48.812;9.146;2022-12-10T01:05:12;40.00;;;21.00;;
7003;SDS011;3542;48.812;9.146;2022-12-10T01:07:37;29.37;;;20.20;;
7003;SDS011;3542;48.812;9.146;2022-12-10T01:10:03;35.53;;;21.73;;
7003;SDS011;3542;48.812;9.146;2022-12-10T01:12:29;39.57;;;21.90;;
7003;SDS011;3542;48.812;9.146;2022-12-10T01:14:54;34.77;;;20.13;;
7003;SDS011;3542;48.812;9.146;2022-12-10T01:17:20;35.67;;;22.73;;
7003;SDS011;3542;48.812;9.146;2022-12-10T01:19:46;36.93;;;20.97;;
7003;SDS011;3542;48.812;9.146;2022-12-10T01:22:12;32.70;;;20.77;;
7003;SDS011;3542;48.812;9.146;2022-12-10T01:24:37;32.73;;;19.13;;
7003;SDS011;3542;48.812;9.146;2022-12-10T01:27:03;35.03;;;20.23;;
7003;SDS011;3542;48.812;9.146;2022-12-10T01:29:28;31.63;;;19.30;;
7003;SDS011;3542;48.812;9.146;2022-12-10T01:31:55;35.47;;;21.20;;
7003;SDS011;3542;48.812;9.146;2022-12-10T01:34:21;34.97;;;20.33;;
7003;SDS011;3542;48.812;9.146;2022-12-10T01:36:51;33.43;;;20.70;;
7003;SDS011;3542;48.812;9.146;2022-12-10T01:39:19;37.57;;;20.10;;
7003;SDS011;3542;48.812;9.146;2022-12-10T01:46:42;35.17;;;20.20;;
7003;SDS011;3542;48.812;9.146;2022-12-10T01:49:17;38.33;;;20.87;;
7003;SDS011;3542;48.812;9.146;2022-12-10T01:51:47;33.53;;;19.03;;
7003;SDS011;3542;48.812;9.146;2022-12-10T01:54:16;36.90;;;20.83;;
7003;SDS011;3542;48.812;9.146;2022-12-10T01:56:45;31.87;;;20.57;;
7003;SDS011;3542;48.812;9.146;2022-12-10T01:59:14;37.17;;;20.90;;
7003;SDS011;3542;48.812;9.146;2022-12-10T03:32:18;36.87;;;20.27;;
7003;SDS011;3542;48.812;9.146;2022-12-10T03:34:47;36.10;;;20.47;;
7003;SDS011;3542;48.812;9.146;2022-12-10T03:37:16;31.97;;;20.30;;
7003;SDS011;3542;48.812;9.146;2022-12-10T03:39:42;32.97;;;19.23;;
7003;SDS011;3542;48.812;9.146;2022-12-10T03:42:07;34.10;;;21.10;;
7003;SDS011;3542;48.812;9.146;2022-12-10T03:44:34;34.33;;;19.93;;
7003;SDS011;3542;48.812;9.146;2022-12-10T03:47:01;31.47;;;18.00;;
7003;SDS011;3542;48.812;9.146;2022-12-10T03:49:29;36.87;;;21.37;;
7003;SDS011;3542;48.812;9.146;2022-12-10T03:51:54;34.17;;;19.33;;
7003;SDS011;3542;48.812;9.146;2022-12-10T03:54:20;37.87;;;22.00;;
7003;SDS011;3542;48.812;9.146;2022-12-10T03:56:46;29.63;;;19.10;;
7003;SDS011;3542;48.812;9.146;2022-12-10T03:59:11;35.90;;;21.60;;
7003;SDS011;3542;48.812;9.146;2022-12-10T04:01:37;36.40;;;20.50;;
7003;SDS011;3542;48.812;9.146;2022-12-10T04:04:03;35.53;;;20.70;;
7003;SDS011;3542;48.812;9.146;2022-12-10T04:06:30;32.53;;;20.47;;
7003;SDS011;3542;48.812;9.146;2022-12-10T04:08:55;30.57;;;19.93;;
7003;SDS011;3542;48.812;9.146;2022-12-10T04:11:21;31.80;;;21.00;;
7003;SDS011;3542;48.812;9.146;2022-12-10T04:13:47;40.07;;;19.80;;
7003;SDS011;3542;48.812;9.146;2022-12-10T04:16:32;36.37;;;19.03;;
7003;SDS011;3542;48.812;9.146;2022-12-10T04:21:26;36.23;;;21.50;;
7003;SDS011;3542;48.812;9.146;2022-12-10T04:24:12;39.90;;;21.90;;
7003;SDS011;3542;48.812;9.146;2022-12-10T04:26:57;29.17;;;19.90;;
7003;SDS011;3542;48.812;9.146;2022-12-10T04:29:26;36.60;;;22.47;;
7003;SDS011;3542;48.812;9.146;2022-12-10T04:31:53;38.73;;;21.47;;
7003;SDS011;3542;48.812;9.146;2022-12-10T04:34:19;32.77;;;19.90;;
7003;SDS011;3542;48.812;9.146;2022-12-10T04:36:45;37.20;;;21.20;;
7003;SDS011;3542;48.812;9.146;2022-12-10T04:39:11;39.80;;;21.97;;
7003;SDS011;3542;48.812;9.146;2022-12-10T04:41:39;28.93;;;20.97;;
7003;SDS011;3542;48.812;9.146;2022-12-10T04:44:05;40.70;;;21.13;;
7003;SDS011;3542;48.812;9.146;2022-12-10T04:46:31;36.47;;;21.60;;
7003;SDS011;3542;48.812;9.146;2022-12-10T04:48:57;36.47;;;21.77;;
7003;SDS011;3542;48.812;9.146;2022-12-10T04:51:22;34.63;;;20.40;;
7003;SDS011;3542;48.812;9.146;2022-12-10T04:53:48;41.43;;;20.87;;
7003;SDS011;3542;48.812;9.146;2022-12-10T04:56:13;35.80;;;21.03;;
7003;SDS011;3542;48.812;9.146;2022-12-10T04:58:39;39.13;;;21.00;;
7003;SDS011;3542;48.812;9.146;2022-12-10T05:01:05;43.37;;;21.30;;
7003;SDS011;3542;48.812;9.146;2022-12-10T05:03:33;32.90;;;21.10;;
7003;SDS011;3542;48.812;9.146;2022-12-10T05:06:00;43.97;;;21.63;;
7003;SDS011;3542;48.812;9.146;2022-12-10T05:08:30;35.60;;;21.10;;
7003;SDS011;3542;48.812;9.146;2022-12-10T05:11:06;36.33;;;21.97;;
7003;SDS011;3542;48.812;9.146;2022-12-10T05:13:34;36.03;;;20.23;;
7003;SDS011;3542;48.812;9.146;2022-12-10T05:16:03;36.67;;;20.67;;
7003;SDS011;3542;48.812;9.146;2022-12-10T05:18:30;37.97;;;21.70;;
7003;SDS011;3542;48.812;9.146;2022-12-10T05:20:58;35.93;;;21.37;;
7003;SDS011;3542;48.812;9.146;2022-12-10T05:23:24;32.00;;;20.60;;
7003;SDS011;3542;48.812;9.146;2022-12-10T05:26:03;35.43;;;21.00;;
7003;SDS011;3542;48.812;9.146;2022-12-10T05:28:29;41.70;;;22.83;;
7003;SDS011;3542;48.812;9.146;2022-12-10T05:30:56;40.33;;;21.20;;
7003;SDS011;3542;48.812;9.146;2022-12-10T05:33:22;36.13;;;20.03;;
7003;SDS011;3542;48.812;9.146;2022-12-10T05:35:51;39.80;;;21.30;;
7003;SDS011;3542;48.812;9.146;2022-12-10T05:38:18;38.23;;;21.50;;
7003;SDS011;3542;48.812;9.146;2022-12-10T05:40:43;39.83;;;21.13;;
7003;SDS011;3542;48.812;9.146;2022-12-10T05:43:09;37.10;;;21.13;;
7003;SDS011;3542;48.812;9.146;2022-12-10T05:45:35;31.70;;;19.53;;
7003;SDS011;3542;48.812;9.146;2022-12-10T05:48:00;39.30;;;20.83;;
7003;SDS011;3542;48.812;9.146;2022-12-10T05:50:26;35.53;;;22.07;;
7003;SDS011;3542;48.812;9.146;2022-12-10T05:52:52;38.13;;;22.87;;
7003;SDS011;3542;48.812;9.146;2022-12-10T05:55:17;41.40;;;21.80;;
7003;SDS011;3542;48.812;9.146;2022-12-10T05:57:43;32.33;;;19.60;;
7003;SDS011;3542;48.812;9.146;2022-12-10T06:00:09;33.67;;;19.83;;
7003;SDS011;3542;48.812;9.146;2022-12-10T06:02:35;35.87;;;22.10;;
7003;SDS011;3542;48.812;9.146;2022-12-10T06:05:01;33.03;;;19.17;;
7003;SDS011;3542;48.812;9.146;2022-12-10T06:07:26;38.73;;;20.63;;
7003;SDS011;3542;48.812;9.146;2022-12-10T06:09:52;34.83;;;20.37;;
7003;SDS011;3542;48.812;9.146;2022-12-10T06:12:17;37.70;;;21.33;;
7003;SDS011;3542;48.812;9.146;2022-12-10T06:14:43;34.33;;;21.20;;
7003;SDS011;3542;48.812;9.146;2022-12-10T06:17:08;37.20;;;20.27;;
7003;SDS011;3542;48.812;9.146;2022-12-10T06:19:34;35.57;;;19.77;;
7003;SDS011;3542;48.812;9.146;2022-12-10T06:21:59;40.17;;;20.17;;
7003;SDS011;3542;48.812;9.146;2022-12-10T06:24:25;36.37;;;21.93;;
7003;SDS011;3542;48.812;9.146;2022-12-10T06:26:50;37.20;;;21.13;;
7003;SDS011;3542;48.812;9.146;2022-12-10T06:29:16;33.30;;;19.97;;
7003;SDS011;3542;48.812;9.146;2022-12-10T06:31:42;37.50;;;20.13;;
7003;SDS011;3542;48.812;9.146;2022-12-10T06:34:08;34.97;;;19.97;;
7003;SDS011;3542;48.812;9.146;2022-12-10T06:36:33;35.20;;;19.97;;
7003;SDS011;3542;48.812;9.146;2022-12-10T06:38:59;40.93;;;22.30;;
7003;SDS011;3542;48.812;9.146;2022-12-10T06:41:25;31.40;;;19.77;;
7003;SDS011;3542;48.812;9.146;2022-12-10T06:43:50;35.23;;;20.57;;
7003;SDS011;3542;48.812;9.146;2022-12-10T06:46:16;36.33;;;20.80;;
7003;SDS011;3542;48.812;9.146;2022-12-10T06:48:44;36.67;;;21.00;;
7003;SDS011;3542;48.812;9.146;2022-12-10T06:51:10;35.23;;;19.83;;
7003;SDS011;3542;48.812;9.146;2022-12-10T06:53:37;35.30;;;20.03;;
7003;SDS011;3542;48.812;9.146;2022-12-10T06:56:05;35.17;;;19.60;;
7003;SDS011;3542;48.812;9.146;2022-12-10T06:58:32;32.50;;;19.73;;
7003;SDS011;3542;48.812;9.146;2022-12-10T07:01:02;33.77;;;21.17;;
7003;SDS011;3542;48.812;9.146;2022-12-10T07:03:54;33.30;;;19.50;;
7003;SDS011;3542;48.812;9.146;2022-12-10T07:06:21;33.60;;;20.77;;
7003;SDS011;3542;48.812;9.146;2022-12-10T07:08:48;36.63;;;20.40;;
7003;SDS011;3542;48.812;9.146;2022-12-10T07:11:15;38.47;;;20.83;;
7003;SDS011;3542;48.812;9.146;2022-12-10T07:13:41;36.83;;;22.13;;
7003;SDS011;3542;48.812;9.146;2022-12-10T07:16:20;34.77;;;20.83;;
7003;SDS011;3542;48.812;9.146;2022-12-10T07:18:48;33.00;;;20.90;;
7003;SDS011;3542;48.812;9.146;2022-12-10T07:21:25;38.70;;;21.20;;
7003;SDS011;3542;48.812;9.146;2022-12-10T07:23:55;32.63;;;19.70;;
7003;SDS011;3542;48.812;9.146;2022-12-10T07:26:23;36.77;;;20.57;;
7003;SDS011;3542;48.812;9.146;2022-12-10T07:28:49;34.23;;;21.50;;
7003;SDS011;3542;48.812;9.146;2022-12-10T07:31:15;35.03;;;21.50;;
7003;SDS011;3542;48.812;9.146;2022-12-10T07:33:41;37.43;;;21.77;;
7003;SDS011;3542;48.812;9.146;2022-12-10T07:36:07;37.77;;;21.10;;
7003;SDS011;3542;48.812;9.146;2022-12-10T07:38:35;35.07;;;20.30;;
7003;SDS011;3542;48.812;9.146;2022-12-10T07:41:19;33.33;;;19.90;;
7003;SDS011;3542;48.812;9.146;2022-12-10T07:43:46;39.60;;;21.83;;
7003;SDS011;3542;48.812;9.146;2022-12-10T07:46:13;38.57;;;20.77;;
7003;SDS011;3542;48.812;9.146;2022-12-10T07:48:42;36.03;;;24.03;;
7003;SDS011;3542;48.812;9.146;2022-12-10T07:51:08;39.03;;;20.97;;
7003;SDS011;3542;48.812;9.146;2022-12-10T07:53:34;36.00;;;20.47;;
7003;SDS011;3542;48.812;9.146;2022-12-10T07:56:00;38.00;;;21.90;;
7003;SDS011;3542;48.812;9.146;2022-12-10T07:58:26;34.00;;;21.00;;
7003;SDS011;3542;48.812;9.146;2022-12-10T08:00:52;40.50;;;22.47;;
7003;SDS011;3542;48.812;9.146;2022-12-10T08:03:17;36.03;;;20.83;;
7003;SDS011;3542;48.812;9.146;2022-12-10T08:05:43;41.77;;;23.53;;
7003;SDS011;3542;48.812;9.146;2022-12-10T08:08:08;33.83;;;19.90;;
7003;SDS011;3542;48.812;9.146;2022-12-10T08:10:34;41.97;;;23.20;;
7003;SDS011;3542;48.812;9.146;2022-12-10T08:13:00;37.33;;;22.40;;
7003;SDS011;3542;48.812;9.146;2022-12-10T08:15:26;47.13;;;24.17;;
7003;SDS011;3542;48.812;9.146;2022-12-10T08:17:53;38.97;;;21.30;;
7003;SDS011;3542;48.812;9.146;2022-12-10T08:20:19;33.60;;;21.23;;
7003;SDS011;3542;48.812;9.146;2022-12-10T08:22:45;39.43;;;22.67;;
7003;SDS011;3542;48.812;9.146;2022-12-10T08:25:10;32.50;;;20.50;;
7003;SDS011;3542;48.812;9.146;2022-12-10T08:27:36;35.27;;;20.03;;
7003;SDS011;3542;48.812;9.146;2022-12-10T08:30:02;36.93;;;20.90;;
7003;SDS011;3542;48.812;9.146;2022-12-10T08:32:28;36.37;;;21.87;;
7003;SDS011;3542;48.812;9.146;2022-12-10T08:34:54;40.27;;;23.00;;
7003;SDS011;3542;48.812;9.146;2022-12-10T08:37:20;42.97;;;22.10;;
7003;SDS011;3542;48.812;9.146;2022-12-10T08:39:46;37.63;;;22.50;;
7003;SDS011;3542;48.812;9.146;2022-12-10T08:42:11;41.10;;;22.23;;
7003;SDS011;3542;48.812;9.146;2022-12-10T08:44:37;36.30;;;20.87;;
7003;SDS011;3542;48.812;9.146;2022-12-10T08:47:02;37.57;;;23.10;;
7003;SDS011;3542;48.812;9.146;2022-12-10T08:49:28;35.33;;;19.80;;
7003;SDS011;3542;48.812;9.146;2022-12-10T08:51:53;32.10;;;21.57;;
7003;SDS011;3542;48.812;9.146;2022-12-10T08:54:19;36.87;;;22.10;;
7003;SDS011;3542;48.812;9.146;2022-12-10T08:56:44;40.70;;;24.83;;
7003;SDS011;3542;48.812;9.146;2022-12-10T08:59:10;32.97;;;20.50;;
7003;SDS011;3542;48.812;9.146;2022-12-10T09:01:35;32.20;;;21.77;;
7003;SDS011;3542;48.812;9.146;2022-12-10T09:04:01;36.30;;;22.37;;
7003;SDS011;3542;48.812;9.146;2022-12-10T09:06:27;31.30;;;19.60;;
7003;SDS011;3542;48.812;9.146;2022-12-10T09:08:53;31.90;;;19.40;;
7003;SDS011;3542;48.812;9.146;2022-12-10T09:11:24;33.80;;;19.10;;
7003;SDS011;3542;48.812;9.146;2022-12-10T09:13:52;39.67;;;22.50;;
7003;SDS011;3542;48.812;9.146;2022-12-10T09:16:18;34.47;;;21.00;;
7003;SDS011;3542;48.812;9.146;2022-12-10T09:18:43;31.63;;;19.70;;
7003;SDS011;3542;48.812;9.146;2022-12-10T09:21:10;34.10;;;20.10;;
7003;SDS011;3542;48.812;9.146;2022-12-10T09:23:38;38.27;;;22.27;;
7003;SDS011;3542;48.812;9.146;2022-12-10T09:26:08;37.10;;;19.77;;
7003;SDS011;3542;48.812;9.146;2022-12-10T09:28:36;39.43;;;21.43;;
7003;SDS011;3542;48.812;9.146;2022-12-10T09:31:02;35.80;;;20.40;;
7003;SDS011;3542;48.812;9.146;2022-12-10T09:33:29;36.80;;;21.03;;
7003;SDS011;3542;48.812;9.146;2022-12-10T09:35:55;33.50;;;20.70;;
7003;SDS011;3542;48.812;9.146;2022-12-10T09:38:21;32.63;;;21.07;;
7003;SDS011;3542;48.812;9.146;2022-12-10T09:40:53;35.00;;;19.60;;
7003;SDS011;3542;48.812;9.146;2022-12-10T09:46:19;35.13;;;21.17;;
7003;SDS011;3542;48.812;9.146;2022-12-10T09:49:14;32.03;;;19.93;;
7003;SDS011;3542;48.812;9.146;2022-12-10T09:52:02;35.10;;;20.10;;
7003;SDS011;3542;48.812;9.146;2022-12-10T09:54:35;34.90;;;19.63;;
7003;SDS011;3542;48.812;9.146;2022-12-10T09:57:06;40.00;;;20.57;;
7003;SDS011;3542;48.812;9.146;2022-12-10T09:59:42;38.90;;;21.90;;
7003;SDS011;3542;48.812;9.146;2022-12-10T10:04:49;33.40;;;20.50;;
7003;SDS011;3542;48.812;9.146;2022-12-10T10:07:22;33.63;;;19.03;;
7003;SDS011;3542;48.812;9.146;2022-12-10T10:09:51;35.30;;;21.20;;
7003;SDS011;3542;48.812;9.146;2022-12-10T10:12:40;31.73;;;20.50;;
7003;SDS011;3542;48.812;9.146;2022-12-10T10:15:18;35.00;;;20.90;;
7003;SDS011;3542;48.812;9.146;2022-12-10T10:17:50;34.87;;;20.10;;
7003;SDS011;3542;48.812;9.146;2022-12-10T10:20:18;35.47;;;19.77;;
7003;SDS011;3542;48.812;9.146;2022-12-10T10:22:44;36.03;;;21.00;;
7003;SDS011;3542;48.812;9.146;2022-12-10T10:25:16;34.87;;;20.70;;
7003;SDS011;3542;48.812;9.146;2022-12-10T10:27:44;34.10;;;20.30;;
7003;SDS011;3542;48.812;9.146;2022-12-10T10:30:17;34.40;;;20.00;;
7003;SDS011;3542;48.812;9.146;2022-12-10T10:35:24;36.53;;;20.70;;
7003;SDS011;3542;48.812;9.146;2022-12-10T10:37:56;35.57;;;20.00;;
7003;SDS011;3542;48.812;9.146;2022-12-10T10:43:15;29.43;;;19.70;;
7003;SDS011;3542;48.812;9.146;2022-12-10T10:48:17;31.43;;;18.97;;
7003;SDS011;3542;48.812;9.146;2022-12-10T10:50:46;33.00;;;19.90;;
7003;SDS011;3542;48.812;9.146;2022-12-10T10:53:21;28.90;;;19.17;;
7003;SDS011;3542;48.812;9.146;2022-12-10T10:55:58;32.80;;;17.53;;
7003;SDS011;3542;48.812;9.146;2022-12-10T10:58:30;25.90;;;16.77;;
7003;SDS011;3542;48.812;9.146;2022-12-10T11:01:00;31.70;;;18.10;;
7003;SDS011;3542;48.812;9.146;2022-12-10T11:03:31;26.93;;;18.07;;
7003;SDS011;3542;48.812;9.146;2022-12-10T11:06:00;30.20;;;18.53;;
7003;SDS011;3542;48.812;9.146;2022-12-10T11:08:30;26.43;;;17.67;;
7003;SDS011;3542;48.812;9.146;2022-12-10T11:11:06;30.10;;;16.77;;
7003;SDS011;3542;48.812;9.146;2022-12-10T11:13:37;31.83;;;17.43;;
7003;SDS011;3542;48.812;9.146;2022-12-10T11:16:20;29.37;;;18.70;;
7003;SDS011;3542;48.812;9.146;2022-12-10T11:18:51;34.70;;;19.87;;
7003;SDS011;3542;48.812;9.146;2022-12-10T11:21:27;27.13;;;16.37;;
7003;SDS011;3542;48.812;9.146;2022-12-10T11:23:55;29.73;;;17.87;;
7003;SDS011;3542;48.812;9.146;2022-12-10T11:26:40;24.50;;;16.03;;
7003;SDS011;3542;48.812;9.146;2022-12-10T11:29:36;29.43;;;18.10;;
7003;SDS011;3542;48.812;9.146;2022-12-10T11:37:38;27.97;;;16.50;;
7003;SDS011;3542;48.812;9.146;2022-12-10T11:40:28;28.47;;;16.23;;
7003;SDS011;3542;48.812;9.146;2022-12-10T11:49:54;23.83;;;15.00;;
7003;SDS011;3542;48.812;9.146;2022-12-10T11:55:03;25.93;;;15.40;;
7003;SDS011;3542;48.812;9.146;2022-12-10T11:57:48;27.00;;;15.90;;
7003;SDS011;3542;48.812;9.146;2022-12-10T12:00:20;26.90;;;16.03;;
7003;SDS011;3542;48.812;9.146;2022-12-10T12:05:39;30.87;;;18.23;;
7003;SDS011;3542;48.812;9.146;2022-12-10T12:11:38;30.87;;;17.60;;
7003;SDS011;3542;48.812;9.146;2022-12-10T12:14:24;29.30;;;17.67;;
7003;SDS011;3542;48.812;9.146;2022-12-10T12:19:46;25.83;;;16.53;;
7003;SDS011;3542;48.812;9.146;2022-12-10T12:22:21;29.80;;;17.47;;
7003;SDS011;3542;48.812;9.146;2022-12-10T12:24:57;30.27;;;18.03;;
7003;SDS011;3542;48.812;9.146;2022-12-10T12:27:34;29.83;;;16.77;;
7003;SDS011;3542;48.812;9.146;2022-12-10T12:30:21;27.30;;;17.23;;
7003;SDS011;3542;48.812;9.146;2022-12-10T12:35:50;24.80;;;16.20;;
7003;SDS011;3542;48.812;9.146;2022-12-10T12:40:53;26.97;;;17.20;;
7003;SDS011;3542;48.812;9.146;2022-12-10T12:46:01;33.60;;;20.20;;
7003;SDS011;3542;48.812;9.146;2022-12-10T12:49:35;29.50;;;18.13;;
7003;SDS011;3542;48.812;9.146;2022-12-10T12:54:23;29.03;;;18.17;;
7003;SDS011;3542;48.812;9.146;2022-12-10T12:57:35;31.17;;;19.47;;
7003;SDS011;3542;48.812;9.146;2022-12-10T12:59:45;31.10;;;18.97;;
7003;SDS011;3542;48.812;9.146;2022-12-10T13:05:14;33.90;;;20.10;;
7003;SDS011;3542;48.812;9.146;2022-12-10T13:07:43;33.33;;;18.90;;
7003;SDS011;3542;48.812;9.146;2022-12-10T13:20:40;32.60;;;17.90;;
7003;SDS011;3542;48.812;9.146;2022-12-10T13:23:28;32.90;;;17.30;;
7003;SDS011;3542;48.812;9.146;2022-12-10T13:25:57;37.20;;;19.73;;
7003;SDS011;3542;48.812;9.146;2022-12-10T13:31:21;29.93;;;17.50;;
7003;SDS011;3542;48.812;9.146;2022-12-10T13:36:35;35.00;;;19.93;;
7003;SDS011;3542;48.812;9.146;2022-12-10T13:41:27;30.50;;;19.27;;
7003;SDS011;3542;48.812;9.146;2022-12-10T13:47:31;33.23;;;19.40;;
7003;SDS011;3542;48.812;9.146;2022-12-10T13:50:17;39.50;;;20.57;;
7003;SDS011;3542;48.812;9.146;2022-12-10T13:58:38;35.47;;;19.50;;
7003;SDS011;3542;48.812;9.146;2022-12-10T14:01:23;31.10;;;18.50;;
7003;SDS011;3542;48.812;9.146;2022-12-10T14:06:42;27.00;;;17.70;;
7003;SDS011;3542;48.812;9.146;2022-12-10T14:09:28;31.50;;;18.83;;
7003;SDS011;3542;48.812;9.146;2022-12-10T14:12:05;33.03;;;17.63;;
7003;SDS011;3542;48.812;9.146;2022-12-10T14:15:00;35.53;;;18.80;;
7003;SDS011;3542;48.812;9.146;2022-12-10T14:17:31;31.13;;;18.67;;
7003;SDS011;3542;48.812;9.146;2022-12-10T14:20:03;33.57;;;19.10;;
7003;SDS011;3542;48.812;9.146;2022-12-10T14:22:35;33.20;;;17.93;;
7003;SDS011;3542;48.812;9.146;2022-12-10T14:25:05;34.93;;;19.53;;
7003;SDS011;3542;48.812;9.146;2022-12-10T14:27:36;39.47;;;17.47;;
7003;SDS011;3542;48.812;9.146;2022-12-10T14:30:18;34.10;;;19.00;;
7003;SDS011;3542;48.812;9.146;2022-12-10T14:32:46;30.00;;;16.50;;
7003;SDS011;3542;48.812;9.146;2022-12-10T14:35:14;37.87;;;19.63;;
7003;SDS011;3542;48.812;9.146;2022-12-10T14:37:46;33.80;;;18.03;;
7003;SDS011;3542;48.812;9.146;2022-12-10T14:40:23;33.43;;;17.10;;
7003;SDS011;3542;48.812;9.146;2022-12-10T14:42:53;31.07;;;18.77;;
7003;SDS011;3542;48.812;9.146;2022-12-10T14:45:27;31.67;;;17.73;;
7003;SDS011;3542;48.812;9.146;2022-12-10T14:48:03;36.13;;;18.17;;
7003;SDS011;3542;48.812;9.146;2022-12-10T14:50:32;32.60;;;18.07;;
7003;SDS011;3542;48.812;9.146;2022-12-10T14:52:57;30.80;;;18.87;;
7003;SDS011;3542;48.812;9.146;2022-12-10T14:55:25;29.23;;;16.47;;
7003;SDS011;3542;48.812;9.146;2022-12-10T14:57:56;28.20;;;16.80;;
7003;SDS011;3542;48.812;9.146;2022-12-10T15:00:24;33.00;;;19.37;;
7003;SDS011;3542;48.812;9.146;2022-12-10T15:02:57;32.90;;;18.73;;
7003;SDS011;3542;48.812;9.146;2022-12-10T15:05:27;35.63;;;19.40;;
7003;SDS011;3542;48.812;9.146;2022-12-10T15:07:56;35.30;;;18.40;;
7003;SDS011;3542;48.812;9.146;2022-12-10T15:10:25;35.63;;;19.47;;
7003;SDS011;3542;48.812;9.146;2022-12-10T15:12:57;33.40;;;17.40;;
7003;SDS011;3542;48.812;9.146;2022-12-10T15:15:28;33.23;;;18.40;;
7003;SDS011;3542;48.812;9.146;2022-12-10T15:18:02;31.50;;;16.90;;
7003;SDS011;3542;48.812;9.146;2022-12-10T15:20:36;40.57;;;18.87;;
7003;SDS011;3542;48.812;9.146;2022-12-10T15:23:07;34.60;;;18.73;;
7003;SDS011;3542;48.812;9.146;2022-12-10T15:25:58;35.73;;;19.63;;
7003;SDS011;3542;48.812;9.146;2022-12-10T15:28:29;35.67;;;18.93;;
7003;SDS011;3542;48.812;9.146;2022-12-10T15:31:13;32.40;;;17.27;;
7003;SDS011;3542;48.812;9.146;2022-12-10T15:36:15;29.00;;;19.70;;
7003;SDS011;3542;48.812;9.146;2022-12-10T15:38:42;35.73;;;18.93;;
7003;SDS011;3542;48.812;9.146;2022-12-10T15:44:54;32.03;;;18.40;;
7003;SDS011;3542;48.812;9.146;2022-12-10T15:49:37;33.53;;;17.83;;
7003;SDS011;3542;48.812;9.146;2022-12-10T15:52:03;37.37;;;17.00;;
7003;SDS011;3542;48.812;9.146;2022-12-10T15:56:59;30.80;;;18.00;;
7003;SDS011;3542;48.812;9.146;2022-12-10T15:59:25;29.47;;;17.70;;
7003;SDS011;3542;48.812;9.146;2022-12-10T16:01:50;34.47;;;17.73;;
7003;SDS011;3542;48.812;9.146;2022-12-10T16:04:16;36.63;;;18.00;;
7003;SDS011;3542;48.812;9.146;2022-12-10T16:06:41;32.40;;;18.30;;
7003;SDS011;3542;48.812;9.146;2022-12-10T16:09:08;30.07;;;18.17;;
7003;SDS011;3542;48.812;9.146;2022-12-10T16:11:34;30.97;;;17.33;;
7003;SDS011;3542;48.812;9.146;2022-12-10T16:14:00;30.87;;;17.50;;
7003;SDS011;3542;48.812;9.146;2022-12-10T16:16:27;32.83;;;17.90;;
7003;SDS011;3542;48.812;9.146;2022-12-10T16:18:53;32.07;;;18.33;;
7003;SDS011;3542;48.812;9.146;2022-12-10T16:21:18;30.93;;;17.37;;
7003;SDS011;3542;48.812;9.146;2022-12-10T16:23:44;29.13;;;16.57;;
7003;SDS011;3542;48.812;9.146;2022-12-10T16:26:13;25.23;;;16.43;;
7003;SDS011;3542;48.812;9.146;2022-12-10T16:28:41;29.00;;;16.17;;
7003;SDS011;3542;48.812;9.146;2022-12-10T16:31:09;33.77;;;17.40;;
7003;SDS011;3542;48.812;9.146;2022-12-10T16:33:37;33.73;;;16.90;;
7003;SDS011;3542;48.812;9.146;2022-12-10T16:36:03;29.07;;;16.90;;
7003;SDS011;3542;48.812;9.146;2022-12-10T16:38:28;32.57;;;17.03;;
7003;SDS011;3542;48.812;9.146;2022-12-10T16:40:54;33.07;;;18.27;;
7003;SDS011;3542;48.812;9.146;2022-12-10T16:43:21;32.63;;;16.77;;
7003;SDS011;3542;48.812;9.146;2022-12-10T16:45:49;32.60;;;17.60;;
7003;SDS011;3542;48.812;9.146;2022-12-10T16:48:15;23.93;;;15.10;;
7003;SDS011;3542;48.812;9.146;2022-12-10T16:50:42;28.23;;;17.83;;
7003;SDS011;3542;48.812;9.146;2022-12-10T16:53:18;35.67;;;15.97;;
7003;SDS011;3542;48.812;9.146;2022-12-10T16:55:49;29.70;;;15.53;;
7003;SDS011;3542;48.812;9.146;2022-12-10T16:58:15;23.63;;;13.67;;
7003;SDS011;3542;48.812;9.146;2022-12-10T17:00:45;28.43;;;16.20;;
7003;SDS011;3542;48.812;9.146;2022-12-10T17:03:12;28.70;;;16.97;;
7003;SDS011;3542;48.812;9.146;2022-12-10T17:05:47;28.80;;;15.73;;
7003;SDS011;3542;48.812;9.146;2022-12-10T17:08:15;24.77;;;15.07;;
7003;SDS011;3542;48.812;9.146;2022-12-10T17:10:41;30.40;;;16.90;;
7003;SDS011;3542;48.812;9.146;2022-12-10T17:13:25;27.43;;;15.73;;
7003;SDS011;3542;48.812;9.146;2022-12-10T17:15:53;30.43;;;16.20;;
7003;SDS011;3542;48.812;9.146;2022-12-10T17:18:20;26.53;;;17.57;;
7003;SDS011;3542;48.812;9.146;2022-12-10T17:20:46;30.53;;;16.47;;
7003;SDS011;3542;48.812;9.146;2022-12-10T17:23:13;28.03;;;16.37;;
7003;SDS011;3542;48.812;9.146;2022-12-10T17:25:39;31.57;;;18.83;;
7003;SDS011;3542;48.812;9.146;2022-12-10T17:28:06;31.40;;;17.63;;
7003;SDS011;3542;48.812;9.146;2022-12-10T17:30:36;32.93;;;17.73;;
7003;SDS011;3542;48.812;9.146;2022-12-10T17:33:01;28.87;;;17.47;;
7003;SDS011;3542;48.812;9.146;2022-12-10T17:35:27;28.90;;;17.00;;
7003;SDS011;3542;48.812;9.146;2022-12-10T17:37:52;29.50;;;17.70;;
7003;SDS011;3542;48.812;9.146;2022-12-10T17:40:20;31.87;;;18.00;;
7003;SDS011;3542;48.812;9.146;2022-12-10T17:42:47;29.57;;;18.30;;
7003;SDS011;3542;48.812;9.146;2022-12-10T17:45:14;36.67;;;18.50;;
7003;SDS011;3542;48.812;9.146;2022-12-10T17:47:41;24.50;;;15.97;;
7003;SDS011;3542;48.812;9.146;2022-12-10T17:52:51;33.47;;;17.93;;
7003;SDS011;3542;48.812;9.146;2022-12-10T17:55:17;31.27;;;17.20;;
7003;SDS011;3542;48.812;9.146;2022-12-10T17:57:42;30.23;;;17.67;;
7003;SDS011;3542;48.812;9.146;2022-12-10T18:00:11;33.60;;;19.27;;
7003;SDS011;3542;48.812;9.146;2022-12-10T18:02:38;31.33;;;17.33;;
7003;SDS011;3542;48.812;9.146;2022-12-10T18:05:04;32.50;;;18.10;;
7003;SDS011;3542;48.812;9.146;2022-12-10T18:07:30;36.10;;;17.70;;
7003;SDS011;3542;48.812;9.146;2022-12-10T18:09:55;74.23;;;22.70;;
7003;SDS011;3542;48.812;9.146;2022-12-10T18:12:21;32.17;;;18.10;;
7003;SDS011;3542;48.812;9.146;2022-12-10T18:14:47;35.13;;;18.20;;